Time;durP1;ratioP1;P1;durP2;ratioP2;P2;SDS_P1;SDS_P2;PMS_P1;PMS_P2;Temp;Humidity;BMP_temperature;BMP_pressure;BME280_temperature;BME280_humidity;BME280_pressure;Samples;Min_cycle;Max_cycle;Signal;HPM_P1;HPM_P2
2023/04/21 00:00:08;;;;;;;22.73;13.05;;;8.60;99.90;;;;;;5052830;28;20055;-60
2023/04/21 00:02:38;;;;;;;22.42;13.40;;;8.50;99.90;;;;;;5051253;28;20572;-61
2023/04/21 00:05:09;;;;;;;21.38;12.90;;;8.50;99.90;;;;;;5053713;28;20044;-61
2023/04/21 00:07:36;;;;;;;21.15;12.35;;;8.50;99.90;;;;;;5051777;28;20041;-60
2023/04/21 00:10:07;;;;;;;22.92;12.90;;;8.50;99.90;;;;;;5052012;28;20478;-61
2023/04/21 00:12:33;;;;;;;22.65;12.95;;;8.50;99.90;;;;;;5051888;28;20151;-60
2023/04/21 00:14:59;;;;;;;21.63;13.18;;;8.50;99.90;;;;;;5052378;28;20116;-61
2023/04/21 00:17:25;;;;;;;21.75;12.00;;;8.50;99.90;;;;;;5052751;28;20040;-60
2023/04/21 00:19:50;;;;;;;20.27;11.30;;;8.50;99.90;;;;;;5052487;28;20032;-61
2023/04/21 00:22:17;;;;;;;21.23;11.82;;;8.50;99.90;;;;;;5051649;28;20154;-61
2023/04/21 00:24:44;;;;;;;22.45;11.27;;;8.50;99.90;;;;;;5034996;28;20125;-60
2023/04/21 00:27:10;;;;;;;20.98;13.40;;;8.50;99.90;;;;;;5053968;28;20488;-61
2023/04/21 00:29:36;;;;;;;22.95;11.63;;;8.50;99.90;;;;;;5051345;28;20049;-60
2023/04/21 00:32:02;;;;;;;23.60;13.10;;;8.50;99.90;;;;;;5053184;28;20132;-61
2023/04/21 00:34:28;;;;;;;22.65;12.93;;;8.60;99.90;;;;;;5051394;28;20048;-61
2023/04/21 00:36:54;;;;;;;19.60;12.23;;;8.60;99.90;;;;;;5051853;28;20444;-60
2023/04/21 00:39:20;;;;;;;24.75;11.20;;;8.60;99.90;;;;;;5052311;28;20041;-61
2023/04/21 00:41:45;;;;;;;23.13;13.07;;;8.60;99.90;;;;;;5053348;28;20485;-60
2023/04/21 00:44:11;;;;;;;20.13;11.77;;;8.60;99.90;;;;;;5052386;28;20412;-60
2023/04/21 00:46:37;;;;;;;20.25;11.07;;;8.70;99.90;;;;;;5052786;28;20041;-60
2023/04/21 00:49:05;;;;;;;20.00;11.57;;;8.60;99.90;;;;;;5051466;28;20055;-60
2023/04/21 00:51:33;;;;;;;20.17;12.65;;;8.70;99.90;;;;;;5051549;28;20037;-60
2023/04/21 00:54:00;;;;;;;20.73;10.90;;;8.60;99.90;;;;;;5051918;28;20095;-61
2023/04/21 00:56:29;;;;;;;23.23;12.10;;;8.60;99.90;;;;;;5051139;28;20066;-61
2023/04/21 00:58:57;;;;;;;22.33;12.15;;;8.60;99.90;;;;;;5050942;28;20055;-60
2023/04/21 01:01:23;;;;;;;20.33;13.57;;;8.60;99.90;;;;;;5051246;28;20036;-61
2023/04/21 01:03:49;;;;;;;21.65;12.27;;;8.60;99.90;;;;;;5051450;28;20505;-60
2023/04/21 01:06:16;;;;;;;19.30;12.27;;;8.60;99.90;;;;;;5050884;28;20080;-61
2023/04/21 01:08:44;;;;;;;21.42;12.20;;;8.50;99.90;;;;;;5052029;28;20417;-60
2023/04/21 01:11:11;;;;;;;16.88;11.32;;;8.50;99.90;;;;;;5051394;28;20032;-60
2023/04/21 01:13:37;;;;;;;18.10;11.45;;;8.50;99.90;;;;;;5051398;28;20040;-60
2023/04/21 01:16:03;;;;;;;26.00;13.32;;;8.50;99.90;;;;;;5050786;28;20102;-60
2023/04/21 01:18:29;;;;;;;18.90;11.20;;;8.50;99.90;;;;;;5050589;28;20041;-60
2023/04/21 01:20:55;;;;;;;19.95;11.50;;;8.50;99.90;;;;;;5051967;28;20094;-60
2023/04/21 01:23:21;;;;;;;17.88;11.05;;;8.50;99.90;;;;;;5051955;28;20045;-61
2023/04/21 01:25:47;;;;;;;22.25;12.23;;;8.40;99.90;;;;;;5051060;28;20567;-61
2023/04/21 01:28:13;;;;;;;21.90;12.38;;;8.40;99.90;;;;;;5050679;28;20048;-60
2023/04/21 01:30:38;;;;;;;23.40;12.63;;;8.40;99.90;;;;;;5050798;28;20037;-60
2023/04/21 01:33:04;;;;;;;19.75;11.48;;;8.30;99.90;;;;;;5052265;28;20401;-60
2023/04/21 01:35:30;;;;;;;21.52;12.68;;;8.30;99.90;;;;;;5032937;28;20545;-60
2023/04/21 01:37:56;;;;;;;20.63;11.50;;;8.30;99.90;;;;;;5051020;28;20045;-60
2023/04/21 01:40:21;;;;;;;21.73;13.10;;;8.30;99.90;;;;;;5050072;28;20091;-60
2023/04/21 01:42:47;;;;;;;19.98;12.05;;;8.20;99.90;;;;;;5050612;28;20037;-60
2023/04/21 01:45:13;;;;;;;24.85;12.02;;;8.20;99.90;;;;;;5051068;28;20457;-60
2023/04/21 01:47:38;;;;;;;20.63;12.82;;;8.20;99.90;;;;;;5050769;28;20041;-60
2023/04/21 01:50:04;;;;;;;20.77;12.25;;;8.20;99.90;;;;;;5050824;28;20044;-60
2023/04/21 01:52:30;;;;;;;20.90;12.35;;;8.20;99.90;;;;;;5051501;28;20120;-60
2023/04/21 01:54:56;;;;;;;21.33;12.82;;;8.20;99.90;;;;;;5050101;28;20095;-60
2023/04/21 01:57:21;;;;;;;20.10;11.20;;;8.20;99.90;;;;;;5033547;28;20470;-61
2023/04/21 01:59:48;;;;;;;19.50;12.07;;;8.20;99.90;;;;;;5050874;28;20403;-61
2023/04/21 02:02:14;;;;;;;18.55;10.65;;;8.20;99.90;;;;;;5049969;28;20128;-60
2023/04/21 02:04:39;;;;;;;20.88;11.18;;;8.20;99.90;;;;;;5033936;28;20127;-60
2023/04/21 02:07:05;;;;;;;25.05;11.93;;;8.20;99.90;;;;;;5050377;28;20094;-60
2023/04/21 02:09:31;;;;;;;18.00;11.00;;;8.20;99.90;;;;;;5050169;28;20091;-60
2023/04/21 02:11:57;;;;;;;17.27;10.35;;;8.20;99.90;;;;;;5051904;28;20076;-60
2023/04/21 02:14:24;;;;;;;20.55;12.25;;;8.20;99.90;;;;;;5049479;28;20040;-60
2023/04/21 02:16:50;;;;;;;20.45;13.25;;;8.20;99.90;;;;;;5050295;28;20040;-60
2023/04/21 02:19:15;;;;;;;20.50;13.20;;;8.20;99.90;;;;;;5050127;28;20405;-60
2023/04/21 02:21:41;;;;;;;19.88;11.63;;;8.20;99.90;;;;;;5051271;28;20045;-60
2023/04/21 02:24:07;;;;;;;20.35;12.10;;;8.10;99.90;;;;;;5033440;28;20041;-60
2023/04/21 02:26:32;;;;;;;21.10;12.15;;;8.10;99.90;;;;;;5050497;28;20044;-60
2023/04/21 02:28:58;;;;;;;20.15;11.68;;;8.10;99.90;;;;;;5053864;28;20134;-60
2023/04/21 02:31:24;;;;;;;22.15;14.25;;;8.10;99.90;;;;;;5053141;28;20037;-60
2023/04/21 02:33:49;;;;;;;22.98;11.80;;;8.20;99.90;;;;;;5054742;28;20052;-61
2023/04/21 02:36:15;;;;;;;22.52;12.82;;;8.20;99.90;;;;;;5040844;28;20033;-60
2023/04/21 02:38:41;;;;;;;22.50;13.18;;;8.20;99.90;;;;;;5033500;28;20047;-60
2023/04/21 02:41:07;;;;;;;18.60;12.07;;;8.10;99.90;;;;;;5042392;28;20432;-60
2023/04/21 02:43:32;;;;;;;19.90;13.52;;;8.10;99.90;;;;;;5053598;28;20045;-61
2023/04/21 02:45:58;;;;;;;21.20;13.65;;;8.10;99.90;;;;;;5053546;28;20045;-60
2023/04/21 02:48:24;;;;;;;24.48;13.65;;;8.10;99.90;;;;;;5054482;28;20115;-60
2023/04/21 02:50:51;;;;;;;19.85;12.32;;;8.10;99.90;;;;;;5053375;28;20084;-60
2023/04/21 02:53:18;;;;;;;19.88;12.95;;;8.10;99.90;;;;;;5053792;28;20052;-60
2023/04/21 02:55:43;;;;;;;19.27;11.68;;;8.00;99.90;;;;;;5037262;28;20060;-60
2023/04/21 02:58:09;;;;;;;21.30;13.25;;;8.00;99.90;;;;;;5036991;28;20194;-60
2023/04/21 03:00:35;;;;;;;25.58;14.55;;;8.00;99.90;;;;;;5053391;28;20055;-60
2023/04/21 03:03:02;;;;;;;22.35;14.35;;;8.00;99.90;;;;;;5053351;28;20397;-60
2023/04/21 03:05:27;;;;;;;24.80;14.18;;;8.00;99.90;;;;;;5052738;28;20090;-60
2023/04/21 03:07:53;;;;;;;21.92;14.63;;;8.00;99.90;;;;;;5053531;28;20394;-61
2023/04/21 03:10:18;;;;;;;23.20;15.30;;;8.00;99.90;;;;;;5053153;28;20102;-60
2023/04/21 03:12:44;;;;;;;21.73;13.77;;;8.00;99.90;;;;;;5053959;28;20115;-60
2023/04/21 03:15:11;;;;;;;24.05;14.63;;;7.90;99.90;;;;;;5053884;28;20122;-60
2023/04/21 03:17:37;;;;;;;27.95;15.00;;;8.00;99.90;;;;;;5052688;28;20056;-60
2023/04/21 03:20:07;;;;;;;26.45;14.98;;;7.90;99.90;;;;;;5054261;28;20037;-60
2023/04/21 03:22:37;;;;;;;24.23;14.30;;;7.90;99.90;;;;;;5054092;28;20036;-60
2023/04/21 03:25:03;;;;;;;23.83;14.40;;;7.90;99.90;;;;;;5054965;28;20436;-60
2023/04/21 03:27:30;;;;;;;25.15;13.32;;;7.90;99.90;;;;;;5053612;28;20036;-61
2023/04/21 03:29:55;;;;;;;23.35;13.65;;;7.80;99.90;;;;;;5053441;28;20123;-60
2023/04/21 03:32:21;;;;;;;22.27;13.18;;;7.80;99.90;;;;;;5052505;28;20080;-60
2023/04/21 03:34:46;;;;;;;22.30;15.05;;;7.80;99.90;;;;;;5052828;28;20037;-60
2023/04/21 03:37:12;;;;;;;23.50;14.18;;;7.80;99.90;;;;;;5053413;28;20044;-60
2023/04/21 03:39:38;;;;;;;21.75;13.20;;;7.80;99.90;;;;;;5051581;28;20045;-60
2023/04/21 03:42:03;;;;;;;23.48;14.45;;;7.80;99.90;;;;;;5054013;28;20405;-60
2023/04/21 03:44:29;;;;;;;21.95;13.80;;;7.70;99.90;;;;;;5052546;28;20606;-60
2023/04/21 03:46:56;;;;;;;21.20;13.60;;;7.70;99.90;;;;;;5054080;28;20552;-60
2023/04/21 03:49:22;;;;;;;24.80;13.55;;;7.70;99.90;;;;;;5051602;28;20123;-60
2023/04/21 03:51:48;;;;;;;21.20;13.30;;;7.70;99.90;;;;;;5054370;28;20394;-61
2023/04/21 03:54:14;;;;;;;18.63;12.60;;;7.60;99.90;;;;;;5053570;28;20033;-60
2023/04/21 03:56:39;;;;;;;22.42;13.55;;;7.60;99.90;;;;;;5053923;28;20059;-60
2023/04/21 03:59:05;;;;;;;20.98;13.02;;;7.60;99.90;;;;;;5052767;28;20048;-60
2023/04/21 04:01:32;;;;;;;21.40;12.85;;;7.60;99.90;;;;;;5051520;28;20093;-60
2023/04/21 04:03:58;;;;;;;25.58;12.75;;;7.60;99.90;;;;;;5054019;28;20044;-60
2023/04/21 04:06:23;;;;;;;21.17;12.73;;;7.60;99.90;;;;;;5034916;28;20052;-60
2023/04/21 04:08:49;;;;;;;24.50;13.18;;;7.60;99.90;;;;;;5051800;28;20081;-60
2023/04/21 04:11:15;;;;;;;20.33;11.88;;;7.60;99.90;;;;;;5053709;28;20037;-60
2023/04/21 04:13:40;;;;;;;18.90;11.77;;;7.60;99.90;;;;;;5052345;28;20040;-61
2023/04/21 04:16:06;;;;;;;22.08;12.88;;;7.60;99.90;;;;;;5052081;28;20051;-60
2023/04/21 04:18:32;;;;;;;23.55;12.63;;;7.60;99.90;;;;;;5052893;28;20486;-60
2023/04/21 04:20:57;;;;;;;19.10;12.15;;;7.60;99.90;;;;;;5052307;28;20099;-60
2023/04/21 04:23:23;;;;;;;19.48;11.85;;;7.60;99.90;;;;;;5051223;28;20041;-61
2023/04/21 04:25:50;;;;;;;18.27;11.10;;;7.60;99.90;;;;;;5053571;28;20037;-60
2023/04/21 04:28:16;;;;;;;18.48;11.50;;;7.60;99.90;;;;;;5035293;28;20448;-60
2023/04/21 04:30:42;;;;;;;17.48;11.95;;;7.60;99.90;;;;;;5052797;28;20037;-60
2023/04/21 04:33:08;;;;;;;20.60;11.07;;;7.60;99.90;;;;;;5051817;28;20094;-60
2023/04/21 04:35:34;;;;;;;21.60;10.13;;;7.60;99.90;;;;;;5051564;28;20051;-60
2023/04/21 04:38:01;;;;;;;18.17;10.88;;;7.60;99.90;;;;;;5051666;28;20131;-60
2023/04/21 04:40:27;;;;;;;16.77;10.13;;;7.60;99.90;;;;;;5034747;28;20490;-60
2023/04/21 04:42:53;;;;;;;28.27;12.95;;;7.60;99.90;;;;;;5051674;28;20387;-60
2023/04/21 04:45:21;;;;;;;21.90;14.57;;;7.60;99.90;;;;;;5051208;28;20072;-60
2023/04/21 04:47:48;;;;;;;31.15;17.65;;;7.60;99.90;;;;;;5035288;28;20102;-60
2023/04/21 04:50:13;;;;;;;18.85;12.50;;;7.60;99.90;;;;;;5034073;28;20053;-60
2023/04/21 04:52:39;;;;;;;19.25;14.07;;;7.60;99.90;;;;;;5052032;28;20071;-60
2023/04/21 04:55:06;;;;;;;18.55;13.82;;;7.70;99.90;;;;;;5051788;28;20036;-60
2023/04/21 04:57:31;;;;;;;19.70;12.50;;;7.70;99.90;;;;;;5050479;28;20118;-60
2023/04/21 04:59:57;;;;;;;18.45;11.90;;;7.60;99.90;;;;;;5052721;28;20079;-60
2023/04/21 05:02:23;;;;;;;23.83;13.02;;;7.70;99.90;;;;;;5050853;28;20045;-60
2023/04/21 05:04:49;;;;;;;23.13;12.30;;;7.70;99.90;;;;;;5051238;28;20037;-60
2023/04/21 05:07:15;;;;;;;17.48;10.57;;;7.70;99.90;;;;;;5034713;28;20122;-60
2023/04/21 05:09:41;;;;;;;16.38;10.57;;;7.70;99.90;;;;;;5050572;28;20085;-60
2023/04/21 05:12:07;;;;;;;19.40;11.32;;;7.70;99.90;;;;;;5050937;28;20044;-60
2023/04/21 05:14:32;;;;;;;18.63;10.90;;;7.80;99.90;;;;;;5051109;28;20118;-60
2023/04/21 05:16:58;;;;;;;15.48;9.27;;;7.80;99.90;;;;;;5051293;28;20068;-60
2023/04/21 05:19:24;;;;;;;16.65;9.82;;;7.80;99.90;;;;;;5051367;28;20041;-60
2023/04/21 05:21:50;;;;;;;16.52;10.45;;;7.80;99.90;;;;;;5051341;28;20052;-60
2023/04/21 05:24:21;;;;;;;17.75;11.43;;;7.80;99.90;;;;;;5050639;28;20040;-60
2023/04/21 05:26:47;;;;;;;18.13;9.55;;;7.90;99.90;;;;;;5050885;28;20059;-60
2023/04/21 05:29:13;;;;;;;15.75;9.07;;;7.90;99.90;;;;;;5051265;28;20037;-60
2023/04/21 05:31:39;;;;;;;32.08;17.67;;;8.00;99.90;;;;;;5050362;28;20147;-60
2023/04/21 05:34:05;;;;;;;17.90;10.68;;;8.00;99.90;;;;;;5050472;28;20120;-60
2023/04/21 05:36:31;;;;;;;18.67;11.13;;;8.10;99.90;;;;;;5050734;28;20363;-60
2023/04/21 05:38:57;;;;;;;18.35;10.35;;;8.10;99.90;;;;;;5051098;28;20191;-60
2023/04/21 05:41:22;;;;;;;16.85;9.38;;;8.10;99.90;;;;;;5050177;28;20123;-60
2023/04/21 05:43:48;;;;;;;15.85;10.27;;;8.20;99.90;;;;;;5051137;28;20073;-60
2023/04/21 05:46:14;;;;;;;16.95;8.65;;;8.20;99.90;;;;;;5050548;28;20068;-60
2023/04/21 05:48:40;;;;;;;14.30;10.45;;;8.20;99.90;;;;;;5049618;28;20136;-60
2023/04/21 05:51:10;;;;;;;16.05;10.25;;;8.30;99.90;;;;;;5050885;28;20486;-60
2023/04/21 05:53:37;;;;;;;18.83;9.18;;;8.30;99.90;;;;;;5050968;28;20039;-60
2023/04/21 05:56:03;;;;;;;18.05;11.88;;;8.40;99.90;;;;;;5034102;28;20128;-60
2023/04/21 05:58:28;;;;;;;13.27;9.75;;;8.40;99.90;;;;;;5050083;28;20132;-60
2023/04/21 06:00:54;;;;;;;19.80;11.77;;;8.50;99.90;;;;;;5050152;28;20048;-60
2023/04/21 06:03:20;;;;;;;18.75;11.05;;;8.50;99.90;;;;;;5050180;28;20049;-60
2023/04/21 06:05:46;;;;;;;16.13;10.27;;;8.60;99.90;;;;;;5051843;28;20044;-61
2023/04/21 06:08:12;;;;;;;19.90;10.55;;;8.60;99.90;;;;;;5051169;28;20053;-60
2023/04/21 06:10:37;;;;;;;15.50;9.93;;;8.70;99.90;;;;;;5051388;28;20044;-60
2023/04/21 06:13:03;;;;;;;16.92;8.90;;;8.80;99.90;;;;;;5050429;28;20124;-60
2023/04/21 06:15:28;;;;;;;13.85;7.95;;;8.80;99.90;;;;;;5032366;28;20135;-61
2023/04/21 06:17:54;;;;;;;14.68;9.15;;;8.90;99.90;;;;;;5050045;28;20052;-60
2023/04/21 06:20:20;;;;;;;20.17;9.38;;;9.00;99.90;;;;;;5049986;28;20045;-60
2023/04/21 06:22:45;;;;;;;15.93;8.40;;;9.10;99.90;;;;;;5050039;28;20037;-60
2023/04/21 06:25:11;;;;;;;15.75;10.23;;;9.10;99.90;;;;;;5051101;28;20041;-60
2023/04/21 06:27:37;;;;;;;16.05;9.05;;;9.20;99.90;;;;;;5050792;28;20040;-60
2023/04/21 06:30:03;;;;;;;25.83;10.35;;;9.30;99.90;;;;;;5051215;28;20040;-60
2023/04/21 06:32:28;;;;;;;17.58;10.60;;;9.40;99.90;;;;;;5033635;28;20060;-60
2023/04/21 06:34:54;;;;;;;14.98;9.30;;;9.50;99.90;;;;;;5050669;28;20497;-60
2023/04/21 06:37:20;;;;;;;20.50;9.80;;;9.50;99.90;;;;;;5032736;28;20489;-60
2023/04/21 06:39:45;;;;;;;15.63;8.82;;;9.70;99.90;;;;;;5050414;28;20041;-61
2023/04/21 06:42:11;;;;;;;14.77;8.48;;;9.80;99.90;;;;;;5051385;28;20095;-60
2023/04/21 06:44:37;;;;;;;14.77;7.78;;;9.90;99.90;;;;;;5048931;28;20045;-60
2023/04/21 06:47:03;;;;;;;14.75;7.03;;;10.00;99.90;;;;;;5050442;28;20053;-61
2023/04/21 06:49:29;;;;;;;16.92;7.68;;;10.10;99.90;;;;;;5049303;28;20048;-60
2023/04/21 06:51:55;;;;;;;15.25;7.43;;;10.20;99.90;;;;;;5051046;28;20037;-60
2023/04/21 06:54:20;;;;;;;10.45;6.57;;;10.20;99.90;;;;;;5050893;28;20095;-60
2023/04/21 06:56:46;;;;;;;24.25;8.52;;;10.30;99.90;;;;;;5051263;28;20413;-60
2023/04/21 06:59:12;;;;;;;15.48;7.80;;;10.30;99.90;;;;;;5051150;28;20083;-60
2023/04/21 07:01:37;;;;;;;18.90;10.35;;;10.40;99.90;;;;;;5049529;28;20071;-60
2023/04/21 07:04:04;;;;;;;47.58;23.35;;;10.40;99.90;;;;;;5032617;28;20033;-60
2023/04/21 07:06:30;;;;;;;21.27;9.65;;;10.50;99.90;;;;;;5050710;28;20123;-60
2023/04/21 07:08:56;;;;;;;18.00;8.05;;;10.60;99.90;;;;;;5049718;28;20144;-60
2023/04/21 07:11:22;;;;;;;18.40;9.63;;;10.80;99.90;;;;;;5032258;28;20539;-60
2023/04/21 07:13:48;;;;;;;17.17;8.55;;;10.90;99.90;;;;;;5052243;28;20033;-60
2023/04/21 07:16:13;;;;;;;16.15;8.18;;;10.90;99.90;;;;;;5055016;28;20041;-60
2023/04/21 07:18:40;;;;;;;14.25;8.38;;;10.90;99.90;;;;;;5052013;28;20846;-60
2023/04/21 07:21:06;;;;;;;12.07;7.18;;;11.00;99.90;;;;;;5047208;28;20057;-61
2023/04/21 07:23:32;;;;;;;17.90;7.32;;;11.00;99.90;;;;;;5053120;28;20052;-60
2023/04/21 07:25:58;;;;;;;15.30;7.10;;;11.10;99.90;;;;;;5052776;28;20404;-61
2023/04/21 07:28:24;;;;;;;14.10;6.68;;;11.10;99.90;;;;;;5051587;28;20068;-60
2023/04/21 07:30:50;;;;;;;20.52;8.57;;;11.20;99.90;;;;;;5053116;28;20079;-60
2023/04/21 07:33:15;;;;;;;21.67;11.93;;;11.30;99.90;;;;;;5052867;28;20033;-60
2023/04/21 07:35:41;;;;;;;20.25;10.65;;;11.30;99.90;;;;;;5052325;28;20505;-60
2023/04/21 07:38:07;;;;;;;12.27;6.65;;;11.30;99.90;;;;;;5048845;28;20048;-61
2023/04/21 07:40:32;;;;;;;18.90;9.25;;;11.40;99.90;;;;;;5038734;28;20045;-60
2023/04/21 07:42:58;;;;;;;12.57;7.97;;;11.50;99.90;;;;;;5047507;28;20124;-61
2023/04/21 07:45:25;;;;;;;25.30;11.73;;;11.60;99.90;;;;;;5050677;28;20044;-63
2023/04/21 07:47:50;;;;;;;22.27;10.05;;;11.70;99.90;;;;;;5050223;28;20494;-61
2023/04/21 07:50:16;;;;;;;16.10;9.70;;;11.80;99.90;;;;;;5033864;28;20044;-60
2023/04/21 07:52:42;;;;;;;19.40;10.93;;;11.80;99.90;;;;;;5051628;28;20127;-61
2023/04/21 07:55:07;;;;;;;13.60;8.00;;;11.90;99.90;;;;;;5049976;28;20071;-61
2023/04/21 07:57:37;;;;;;;15.05;8.93;;;12.00;99.90;;;;;;5051221;28;20523;-60
2023/04/21 08:00:05;;;;;;;25.83;13.57;;;12.10;99.90;;;;;;5050051;28;20440;-60
2023/04/21 08:02:30;;;;;;;20.67;11.30;;;12.10;99.90;;;;;;5041834;28;20056;-61
2023/04/21 08:04:56;;;;;;;16.45;9.93;;;12.20;99.90;;;;;;5041225;28;20041;-61
2023/04/21 08:07:22;;;;;;;30.30;15.55;;;12.20;99.90;;;;;;5047018;28;20033;-61
2023/04/21 08:09:47;;;;;;;13.02;8.00;;;12.20;99.90;;;;;;5049196;28;20086;-60
2023/04/21 08:12:13;;;;;;;13.77;8.75;;;12.30;99.90;;;;;;5048418;28;20052;-61
2023/04/21 08:14:39;;;;;;;14.95;8.98;;;12.30;99.90;;;;;;5048662;28;20106;-61
2023/04/21 08:17:05;;;;;;;18.33;9.10;;;12.40;99.90;;;;;;5049755;28;20033;-60
2023/04/21 08:19:30;;;;;;;15.93;8.95;;;12.50;99.90;;;;;;5046935;28;20108;-60
2023/04/21 08:21:57;;;;;;;17.92;8.50;;;12.50;99.90;;;;;;5049224;28;20136;-60
2023/04/21 08:24:23;;;;;;;12.88;8.10;;;12.60;99.90;;;;;;5048643;28;20496;-60
2023/04/21 08:26:49;;;;;;;18.63;9.82;;;12.70;99.90;;;;;;5032135;28;20084;-59
2023/04/21 08:29:15;;;;;;;15.35;8.85;;;12.80;99.90;;;;;;5048881;28;20227;-59
2023/04/21 08:31:40;;;;;;;13.75;9.50;;;12.90;99.90;;;;;;5048694;28;20045;-59
2023/04/21 08:34:06;;;;;;;16.38;9.02;;;12.90;99.90;;;;;;5050764;28;20044;-60
2023/04/21 08:36:32;;;;;;;13.27;8.30;;;13.00;99.90;;;;;;5047730;28;20041;-60
2023/04/21 08:38:58;;;;;;;16.77;7.20;;;13.00;99.90;;;;;;5050366;28;20043;-60
2023/04/21 08:41:25;;;;;;;12.30;7.82;;;13.10;99.90;;;;;;5064555;28;20040;-60
2023/04/21 08:43:51;;;;;;;13.07;8.55;;;13.20;99.90;;;;;;5048085;28;20049;-60
2023/04/21 08:46:18;;;;;;;17.65;9.25;;;13.20;99.90;;;;;;5048384;28;20393;-60
2023/04/21 08:48:45;;;;;;;15.02;9.20;;;13.30;99.90;;;;;;5064311;28;20127;-60
2023/04/21 08:51:19;;;;;;;17.30;9.30;;;13.40;99.90;;;;;;5048616;28;20032;-60
2023/04/21 08:53:45;;;;;;;17.52;9.45;;;13.50;99.90;;;;;;5064216;28;20112;-60
2023/04/21 08:56:11;;;;;;;14.80;9.32;;;13.50;99.90;;;;;;5050273;28;20123;-59
2023/04/21 08:58:36;;;;;;;14.02;8.75;;;13.50;99.90;;;;;;5047445;28;20045;-59
2023/04/21 09:01:02;;;;;;;15.20;9.00;;;13.60;99.90;;;;;;5065249;28;20040;-60
2023/04/21 09:03:30;;;;;;;12.57;8.55;;;13.60;99.90;;;;;;5063633;28;20044;-60
2023/04/21 09:05:59;;;;;;;14.57;9.38;;;13.70;99.90;;;;;;5064711;28;20419;-60
2023/04/21 09:08:27;;;;;;;16.45;9.40;;;13.80;99.90;;;;;;5047325;28;20099;-60
2023/04/21 09:10:53;;;;;;;16.73;9.27;;;13.90;99.90;;;;;;5031298;28;20051;-60
2023/04/21 09:13:20;;;;;;;18.60;9.25;;;13.90;99.90;;;;;;5047866;28;20128;-60
2023/04/21 09:15:53;;;;;;;20.05;9.13;;;14.00;99.90;;;;;;5049002;28;20036;-59
2023/04/21 09:18:24;;;;;;;14.60;9.93;;;14.10;99.90;;;;;;5046776;28;20131;-60
2023/04/21 09:21:05;;;;;;;15.77;9.18;;;14.20;99.90;;;;;;5046406;28;20053;-60
2023/04/21 09:23:30;;;;;;;15.10;8.88;;;14.30;99.90;;;;;;5045958;28;20123;-60
2023/04/21 09:25:56;;;;;;;15.73;9.45;;;14.30;99.90;;;;;;5048371;28;20140;-60
2023/04/21 09:28:22;;;;;;;13.43;8.60;;;14.40;99.90;;;;;;5033710;28;20045;-60
2023/04/21 09:30:54;;;;;;;13.25;9.25;;;14.40;99.90;;;;;;5050531;28;20025;-60
2023/04/21 09:33:20;;;;;;;14.13;8.60;;;14.40;99.90;;;;;;5066739;28;20044;-60
2023/04/21 09:35:46;;;;;;;14.70;8.32;;;14.50;99.90;;;;;;5050602;28;20040;-59
2023/04/21 09:38:12;;;;;;;16.73;8.85;;;14.60;99.90;;;;;;5066823;28;20064;-60
2023/04/21 09:40:39;;;;;;;13.88;8.93;;;14.60;99.90;;;;;;5049964;28;20474;-59
2023/04/21 09:43:05;;;;;;;15.73;8.40;;;14.60;99.90;;;;;;5052486;28;20103;-59
2023/04/21 09:45:32;;;;;;;14.38;8.23;;;14.70;99.90;;;;;;5049860;28;20124;-59
2023/04/21 09:48:00;;;;;;;19.10;8.82;;;14.80;99.90;;;;;;5048898;28;20041;-59
2023/04/21 09:50:27;;;;;;;14.48;9.13;;;14.80;99.90;;;;;;5066176;28;20381;-60
2023/04/21 09:52:55;;;;;;;17.05;9.50;;;14.90;99.90;;;;;;5049836;28;20370;-60
2023/04/21 09:55:28;;;;;;;14.60;8.93;;;15.00;99.90;;;;;;5050322;28;20051;-61
2023/04/21 09:57:59;;;;;;;14.75;8.43;;;15.10;99.90;;;;;;5051045;28;20043;-62
2023/04/21 10:00:27;;;;;;;18.25;8.75;;;15.20;99.90;;;;;;5047771;28;20047;-60
2023/04/21 10:02:53;;;;;;;12.57;8.90;;;15.30;99.90;;;;;;5041613;28;20033;-60
2023/04/21 10:05:19;;;;;;;17.90;9.70;;;15.30;99.90;;;;;;5047298;28;20073;-60
2023/04/21 10:07:46;;;;;;;16.08;8.82;;;15.40;99.90;;;;;;5029776;28;20075;-61
2023/04/21 10:10:22;;;;;;;12.98;9.15;;;15.40;99.90;;;;;;5047506;28;20045;-60
2023/04/21 10:12:50;;;;;;;15.35;8.75;;;15.50;99.90;;;;;;5047193;28;20045;-60
2023/04/21 10:15:37;;;;;;;15.00;9.20;;;15.50;99.90;;;;;;5013559;28;20042;-60
2023/04/21 10:18:22;;;;;;;13.13;8.15;;;15.50;99.90;;;;;;5047213;28;20121;-60
2023/04/21 10:21:02;;;;;;;13.07;8.45;;;15.60;99.90;;;;;;5047483;28;20044;-60
2023/04/21 10:23:48;;;;;;;16.92;8.52;;;15.60;99.90;;;;;;5046866;28;20088;-61
2023/04/21 10:26:20;;;;;;;14.68;9.02;;;15.60;99.90;;;;;;5030042;28;20136;-60
2023/04/21 10:28:55;;;;;;;15.50;9.68;;;15.70;99.90;;;;;;5029935;28;20092;-60
2023/04/21 10:31:30;;;;;;;;;;;15.80;99.90;;;;;;5030499;28;20065;-60
2023/04/21 10:34:05;;;;;;;16.43;9.13;;;15.80;99.90;;;;;;5030666;28;19924;-60
2023/04/21 10:36:33;;;;;;;13.82;8.70;;;15.80;99.90;;;;;;5030769;28;20316;-60
2023/04/21 10:39:04;;;;;;;13.55;8.63;;;15.90;99.90;;;;;;5047230;28;20100;-60
2023/04/21 10:41:32;;;;;;;16.23;8.35;;;16.10;99.90;;;;;;5046888;28;20441;-60
2023/04/21 10:43:58;;;;;;;13.38;9.55;;;16.10;99.90;;;;;;5029986;28;20104;-60
2023/04/21 10:46:53;;;;;;;17.23;9.50;;;16.20;99.90;;;;;;5029580;28;20083;-60
2023/04/21 10:49:28;;;;;;;12.40;8.55;;;16.20;99.90;;;;;;5008227;28;20585;-60
2023/04/21 10:52:01;;;;;;;11.77;8.57;;;16.20;99.90;;;;;;5051111;28;20052;-60
2023/04/21 10:54:59;;;;;;;13.27;8.57;;;16.20;99.90;;;;;;5033626;28;20453;-60
2023/04/21 10:57:25;;;;;;;16.75;9.60;;;16.30;99.90;;;;;;5033030;28;20076;-60
2023/04/21 10:59:51;;;;;;;17.73;10.35;;;16.30;99.90;;;;;;5034077;28;20509;-60
2023/04/21 11:02:17;;;;;;;13.65;9.60;;;16.50;99.90;;;;;;5033502;28;20033;-61
2023/04/21 11:04:46;;;;;;;13.90;8.35;;;16.70;99.90;;;;;;5049799;28;20120;-60
2023/04/21 11:07:15;;;;;;;19.08;9.02;;;17.00;99.90;;;;;;5034798;28;20087;-61
2023/04/21 11:09:41;;;;;;;12.68;8.43;;;17.10;99.90;;;;;;5050041;28;20061;-60
2023/04/21 11:12:13;;;;;;;15.20;8.85;;;17.20;99.90;;;;;;5033304;28;20073;-61
2023/04/21 11:14:41;;;;;;;14.93;8.90;;;17.30;99.90;;;;;;5049854;28;20088;-60
2023/04/21 11:17:14;;;;;;;12.38;8.90;;;17.40;99.90;;;;;;5050183;28;20037;-60
2023/04/21 11:19:41;;;;;;;14.77;9.35;;;17.40;99.90;;;;;;5034592;28;20049;-61
2023/04/21 11:22:07;;;;;;;14.70;8.30;;;17.40;99.90;;;;;;5034904;28;20041;-60
2023/04/21 11:24:33;;;;;;;15.50;8.60;;;17.60;99.90;;;;;;5016104;28;20041;-60
2023/04/21 11:27:01;;;;;;;13.32;8.40;;;17.70;99.90;;;;;;5033773;28;20495;-60
2023/04/21 11:29:30;;;;;;;15.75;8.65;;;17.80;99.90;;;;;;5033679;28;20042;-60
2023/04/21 11:31:57;;;;;;;12.85;7.88;;;17.90;99.90;;;;;;5034118;28;20151;-60
2023/04/21 11:34:26;;;;;;;12.95;8.20;;;18.00;99.90;;;;;;5016557;28;20045;-60
2023/04/21 11:36:52;;;;;;;14.13;8.07;;;18.20;99.90;;;;;;5034597;28;20041;-60
2023/04/21 11:39:21;;;;;;;15.85;8.60;;;18.30;99.30;;;;;;5033583;28;20038;-60
2023/04/21 11:41:49;;;;;;;13.85;8.00;;;18.30;99.30;;;;;;5033292;28;20490;-60
2023/04/21 11:44:29;;;;;;;14.30;7.97;;;18.30;99.50;;;;;;5049393;28;20073;-60
2023/04/21 11:46:55;;;;;;;13.50;8.10;;;18.30;98.20;;;;;;5033016;28;20091;-60
2023/04/21 11:49:24;;;;;;;10.73;7.30;;;18.30;98.10;;;;;;5033626;28;20438;-60
2023/04/21 11:51:50;;;;;;;9.95;6.90;;;18.30;98.00;;;;;;5034511;28;20044;-60
2023/04/21 11:54:17;;;;;;;15.70;7.43;;;18.30;97.30;;;;;;5032514;28;20030;-60
2023/04/21 11:56:46;;;;;;;14.15;7.28;;;18.30;96.60;;;;;;5049064;28;20490;-60
2023/04/21 11:59:14;;;;;;;11.52;6.68;;;18.40;96.40;;;;;;5015796;28;20045;-60
2023/04/21 12:01:50;;;;;;;10.73;6.82;;;18.30;95.20;;;;;;5048697;28;20045;-60
2023/04/21 12:04:20;;;;;;;12.65;7.35;;;18.30;96.40;;;;;;5033827;28;20441;-60
2023/04/21 12:06:57;;;;;;;13.82;6.70;;;18.30;96.20;;;;;;5049280;28;20057;-60
2023/04/21 12:09:23;;;;;;;14.50;6.88;;;18.40;95.40;;;;;;5048442;28;20104;-60
2023/04/21 12:11:51;;;;;;;13.20;6.90;;;18.40;95.30;;;;;;5032771;28;20041;-60
2023/04/21 12:14:20;;;;;;;12.63;6.65;;;18.40;95.60;;;;;;5048770;28;20087;-60
2023/04/21 12:16:50;;;;;;;12.00;6.82;;;18.50;94.90;;;;;;5034056;28;20482;-60
2023/04/21 12:19:25;;;;;;;11.82;6.47;;;18.60;93.90;;;;;;5048865;28;20041;-60
2023/04/21 12:21:57;;;;;;;12.43;6.65;;;18.50;94.10;;;;;;5048600;28;20045;-60
2023/04/21 12:24:23;;;;;;;12.38;5.90;;;18.40;93.60;;;;;;5048373;28;20049;-60
2023/04/21 12:26:49;;;;;;;10.38;6.45;;;18.50;94.10;;;;;;5049139;28;20049;-60
2023/04/21 12:29:15;;;;;;;10.88;6.25;;;18.70;94.50;;;;;;5031543;28;20091;-60
2023/04/21 12:31:40;;;;;;;9.40;6.32;;;18.90;93.80;;;;;;5031919;28;20046;-60
2023/04/21 12:34:06;;;;;;;11.80;5.40;;;19.00;93.20;;;;;;5032575;28;20077;-60
2023/04/21 12:36:31;;;;;;;12.70;5.65;;;18.90;92.60;;;;;;5031093;28;20048;-60